sensor_id;sensor_type;location;lat;lon;timestamp;pressure;altitude;pressure_sealevel;temperature;humidity
50672;BME280;46021;55.882;37.654;2023-06-05T00:01:19;99887.34;;;8.90;54.98
50672;BME280;46021;55.882;37.654;2023-06-05T00:03:46;99874.28;;;8.92;55.10
50672;BME280;46021;55.882;37.654;2023-06-05T00:06:13;99872.59;;;8.91;55.34
50672;BME280;46021;55.882;37.654;2023-06-05T00:08:40;99883.81;;;8.93;55.61
50672;BME280;46021;55.882;37.654;2023-06-05T00:11:07;99880.22;;;8.98;55.08
50672;BME280;46021;55.882;37.654;2023-06-05T00:13:34;99876.69;;;9.01;55.25
50672;BME280;46021;55.882;37.654;2023-06-05T00:16:03;99874.06;;;9.03;54.99
50672;BME280;46021;55.882;37.654;2023-06-05T00:18:30;99874.84;;;9.06;55.25
50672;BME280;46021;55.882;37.654;2023-06-05T00:20:57;99878.22;;;9.10;55.24
50672;BME280;46021;55.882;37.654;2023-06-05T00:23:24;99861.00;;;9.06;55.00
50672;BME280;46021;55.882;37.654;2023-06-05T00:25:51;99878.19;;;9.11;54.74
50672;BME280;46021;55.882;37.654;2023-06-05T00:28:19;99877.28;;;9.12;54.93
50672;BME280;46021;55.882;37.654;2023-06-05T00:30:46;99865.94;;;9.16;54.62
50672;BME280;46021;55.882;37.654;2023-06-05T00:33:14;99870.19;;;9.21;54.80
50672;BME280;46021;55.882;37.654;2023-06-05T00:35:42;99866.75;;;9.18;54.86
50672;BME280;46021;55.882;37.654;2023-06-05T00:38:10;99863.25;;;9.20;54.58
50672;BME280;46021;55.882;37.654;2023-06-05T00:40:37;99863.19;;;9.23;54.41
50672;BME280;46021;55.882;37.654;2023-06-05T00:43:04;99871.72;;;9.28;54.37
50672;BME280;46021;55.882;37.654;2023-06-05T00:45:33;99865.75;;;9.24;55.26
50672;BME280;46021;55.882;37.654;2023-06-05T00:48:00;99875.22;;;9.28;55.16
50672;BME280;46021;55.882;37.654;2023-06-05T00:50:29;99876.94;;;9.28;55.09
50672;BME280;46021;55.882;37.654;2023-06-05T00:52:58;99870.94;;;9.24;54.20
50672;BME280;46021;55.882;37.654;2023-06-05T00:55:25;99870.88;;;9.27;54.90
50672;BME280;46021;55.882;37.654;2023-06-05T00:57:53;99866.53;;;9.28;54.33
50672;BME280;46021;55.882;37.654;2023-06-05T01:00:21;99875.22;;;9.28;55.01
50672;BME280;46021;55.882;37.654;2023-06-05T01:02:49;99876.09;;;9.27;54.40
50672;BME280;46021;55.882;37.654;2023-06-05T01:05:21;99879.50;;;9.29;54.30
50672;BME280;46021;55.882;37.654;2023-06-05T01:07:50;99880.34;;;9.30;54.90
50672;BME280;46021;55.882;37.654;2023-06-05T01:10:18;99879.50;;;9.29;55.36
50672;BME280;46021;55.882;37.654;2023-06-05T01:12:50;99876.03;;;9.30;54.76
50672;BME280;46021;55.882;37.654;2023-06-05T01:15:23;99876.91;;;9.29;55.37
50672;BME280;46021;55.882;37.654;2023-06-05T01:17:55;99870.00;;;9.28;54.97
50672;BME280;46021;55.882;37.654;2023-06-05T01:20:22;99869.09;;;9.29;55.22
50672;BME280;46021;55.882;37.654;2023-06-05T01:22:51;99869.94;;;9.30;55.19
50672;BME280;46021;55.882;37.654;2023-06-05T01:25:18;99867.44;;;9.27;55.81
50672;BME280;46021;55.882;37.654;2023-06-05T01:27:54;99869.28;;;9.22;55.84
50672;BME280;46021;55.882;37.654;2023-06-05T01:30:24;99865.84;;;9.21;55.84
50672;BME280;46021;55.882;37.654;2023-06-05T01:32:57;99864.88;;;9.25;55.01
50672;BME280;46021;55.882;37.654;2023-06-05T01:35:30;99858.78;;;9.26;55.25
50672;BME280;46021;55.882;37.654;2023-06-05T01:38:01;99872.56;;;9.30;55.47
50672;BME280;46021;55.882;37.654;2023-06-05T01:40:32;99873.34;;;9.33;54.87
50672;BME280;46021;55.882;37.654;2023-06-05T01:43:01;99867.22;;;9.36;54.97
50672;BME280;46021;55.882;37.654;2023-06-05T01:45:30;99868.94;;;9.35;55.25
50672;BME280;46021;55.882;37.654;2023-06-05T01:47:57;99872.31;;;9.41;55.01
50672;BME280;46021;55.882;37.654;2023-06-05T01:50:25;99879.25;;;9.40;55.24
50672;BME280;46021;55.882;37.654;2023-06-05T01:52:52;99877.47;;;9.42;55.41
50672;BME280;46021;55.882;37.654;2023-06-05T01:55:22;99884.44;;;9.42;55.29
50672;BME280;46021;55.882;37.654;2023-06-05T01:57:50;99884.34;;;9.45;55.01
50672;BME280;46021;55.882;37.654;2023-06-05T02:00:18;99881.66;;;9.49;55.19
50672;BME280;46021;55.882;37.654;2023-06-05T02:02:47;99886.06;;;9.46;55.16
50672;BME280;46021;55.882;37.654;2023-06-05T02:05:15;99884.22;;;9.51;55.16
50672;BME280;46021;55.882;37.654;2023-06-05T02:07:45;99889.31;;;9.54;55.55
50672;BME280;46021;55.882;37.654;2023-06-05T02:10:15;99891.88;;;9.57;54.90
50672;BME280;46021;55.882;37.654;2023-06-05T02:12:48;99887.53;;;9.56;55.44
50672;BME280;46021;55.882;37.654;2023-06-05T02:15:15;99884.94;;;9.56;55.10
50672;BME280;46021;55.882;37.654;2023-06-05T02:17:44;99889.22;;;9.59;55.26
50672;BME280;46021;55.882;37.654;2023-06-05T02:20:17;99882.34;;;9.56;55.75
50672;BME280;46021;55.882;37.654;2023-06-05T02:22:44;99890.94;;;9.60;55.45
50672;BME280;46021;55.882;37.654;2023-06-05T02:25:15;99887.44;;;9.61;55.21
50672;BME280;46021;55.882;37.654;2023-06-05T02:27:43;99898.56;;;9.66;55.33
50672;BME280;46021;55.882;37.654;2023-06-05T02:30:12;99880.41;;;9.64;55.27
50672;BME280;46021;55.882;37.654;2023-06-05T02:32:39;99889.81;;;9.70;55.35
50672;BME280;46021;55.882;37.654;2023-06-05T02:35:10;99894.94;;;9.73;55.65
50672;BME280;46021;55.882;37.654;2023-06-05T02:37:37;99894.09;;;9.72;56.08
50672;BME280;46021;55.882;37.654;2023-06-05T02:40:11;99894.13;;;9.71;55.80
50672;BME280;46021;55.882;37.654;2023-06-05T02:42:38;99896.66;;;9.74;55.78
50672;BME280;46021;55.882;37.654;2023-06-05T02:45:07;99901.06;;;9.72;56.29
50672;BME280;46021;55.882;37.654;2023-06-05T02:47:36;99904.44;;;9.75;56.05
50672;BME280;46021;55.882;37.654;2023-06-05T02:50:05;99903.63;;;9.73;56.66
50672;BME280;46021;55.882;37.654;2023-06-05T02:52:36;99905.31;;;9.74;56.02
50672;BME280;46021;55.882;37.654;2023-06-05T02:55:11;99906.22;;;9.73;56.68
50672;BME280;46021;55.882;37.654;2023-06-05T02:57:40;99907.91;;;9.74;56.69
50672;BME280;46021;55.882;37.654;2023-06-05T03:00:11;99906.94;;;9.79;56.60
50672;BME280;46021;55.882;37.654;2023-06-05T03:02:43;99899.06;;;9.82;56.22
50672;BME280;46021;55.882;37.654;2023-06-05T03:05:14;99899.81;;;9.87;56.54
50672;BME280;46021;55.882;37.654;2023-06-05T03:07:43;99902.16;;;9.96;56.60
50672;BME280;46021;55.882;37.654;2023-06-05T03:10:12;99895.84;;;10.06;56.32
50672;BME280;46021;55.882;37.654;2023-06-05T03:12:39;99898.38;;;10.09;56.59
50672;BME280;46021;55.882;37.654;2023-06-05T03:15:07;99902.59;;;10.13;56.82
50672;BME280;46021;55.882;37.654;2023-06-05T03:17:35;99898.06;;;10.20;56.58
50672;BME280;46021;55.882;37.654;2023-06-05T03:20:04;99908.22;;;10.31;56.63
50672;BME280;46021;55.882;37.654;2023-06-05T03:22:35;99902.66;;;10.43;56.53
50672;BME280;46021;55.882;37.654;2023-06-05T03:25:02;99903.34;;;10.51;56.32
50672;BME280;46021;55.882;37.654;2023-06-05T03:27:32;99897.91;;;10.59;56.27
50672;BME280;46021;55.882;37.654;2023-06-05T03:29:59;99903.19;;;10.56;56.50
50672;BME280;46021;55.882;37.654;2023-06-05T03:32:31;99905.84;;;10.54;56.41
50672;BME280;46021;55.882;37.654;2023-06-05T03:34:58;99912.06;;;10.49;55.90
50672;BME280;46021;55.882;37.654;2023-06-05T03:37:27;99894.94;;;10.40;56.17
50672;BME280;46021;55.882;37.654;2023-06-05T03:39:54;99908.66;;;10.47;56.71
50672;BME280;46021;55.882;37.654;2023-06-05T03:42:21;99912.84;;;10.52;56.56
50672;BME280;46021;55.882;37.654;2023-06-05T03:44:48;99918.97;;;10.51;56.33
50672;BME280;46021;55.882;37.654;2023-06-05T03:47:16;99900.72;;;10.51;56.27
50672;BME280;46021;55.882;37.654;2023-06-05T03:49:46;99906.91;;;10.47;56.67
50672;BME280;46021;55.882;37.654;2023-06-05T03:52:15;99893.97;;;10.44;56.72
50672;BME280;46021;55.882;37.654;2023-06-05T03:54:44;99910.63;;;10.39;56.82
50672;BME280;46021;55.882;37.654;2023-06-05T03:57:12;99904.78;;;10.29;57.23
50672;BME280;46021;55.882;37.654;2023-06-05T03:59:42;99901.63;;;10.18;57.14
50672;BME280;46021;55.882;37.654;2023-06-05T04:02:09;99899.19;;;10.11;57.42
50672;BME280;46021;55.882;37.654;2023-06-05T04:04:36;99900.13;;;10.07;57.92
50672;BME280;46021;55.882;37.654;2023-06-05T04:07:04;99884.56;;;10.06;58.13
50672;BME280;46021;55.882;37.654;2023-06-05T04:09:31;99894.84;;;10.10;58.79
50672;BME280;46021;55.882;37.654;2023-06-05T04:12:00;99896.31;;;10.21;58.50
50672;BME280;46021;55.882;37.654;2023-06-05T04:14:29;99892.53;;;10.34;58.66
50672;BME280;46021;55.882;37.654;2023-06-05T04:16:56;99893.00;;;10.47;58.74
50672;BME280;46021;55.882;37.654;2023-06-05T04:19:25;99891.84;;;10.59;58.93
50672;BME280;46021;55.882;37.654;2023-06-05T04:21:55;99897.72;;;10.65;58.96
50672;BME280;46021;55.882;37.654;2023-06-05T04:24:23;99894.03;;;10.72;59.30
50672;BME280;46021;55.882;37.654;2023-06-05T04:26:51;99898.75;;;10.89;59.93
50672;BME280;46021;55.882;37.654;2023-06-05T04:29:20;99897.56;;;11.00;59.12
50672;BME280;46021;55.882;37.654;2023-06-05T04:31:48;99903.22;;;11.14;59.22
50672;BME280;46021;55.882;37.654;2023-06-05T04:34:16;99898.53;;;11.25;59.14
50672;BME280;46021;55.882;37.654;2023-06-05T04:36:45;99903.19;;;11.44;58.72
50672;BME280;46021;55.882;37.654;2023-06-05T04:39:16;99904.47;;;11.59;58.69
50672;BME280;46021;55.882;37.654;2023-06-05T04:41:45;99903.78;;;11.52;59.60
50672;BME280;46021;55.882;37.654;2023-06-05T04:44:17;99901.19;;;11.52;59.00
50672;BME280;46021;55.882;37.654;2023-06-05T04:46:46;99904.78;;;11.48;58.95
50672;BME280;46021;55.882;37.654;2023-06-05T04:49:14;99909.69;;;11.30;60.22
50672;BME280;46021;55.882;37.654;2023-06-05T04:51:42;99907.78;;;11.07;60.49
50672;BME280;46021;55.882;37.654;2023-06-05T04:54:14;99907.13;;;11.01;60.35
50672;BME280;46021;55.882;37.654;2023-06-05T04:56:42;99902.38;;;10.85;60.70
50672;BME280;46021;55.882;37.654;2023-06-05T04:59:11;99905.56;;;10.64;61.15
50672;BME280;46021;55.882;37.654;2023-06-05T05:01:38;99909.84;;;10.35;62.47
50672;BME280;46021;55.882;37.654;2023-06-05T05:04:08;99904.19;;;10.19;63.21
50672;BME280;46021;55.882;37.654;2023-06-05T05:06:35;99902.88;;;10.03;64.19
50672;BME280;46021;55.882;37.654;2023-06-05T05:09:02;99908.28;;;9.95;64.06
50672;BME280;46021;55.882;37.654;2023-06-05T05:11:30;99901.50;;;9.88;64.77
50672;BME280;46021;55.882;37.654;2023-06-05T05:13:57;99901.34;;;9.94;64.14
50672;BME280;46021;55.882;37.654;2023-06-05T05:16:25;99900.28;;;10.01;64.82
50672;BME280;46021;55.882;37.654;2023-06-05T05:18:52;99900.03;;;10.12;65.35
50672;BME280;46021;55.882;37.654;2023-06-05T05:21:21;99898.19;;;10.15;66.13
50672;BME280;46021;55.882;37.654;2023-06-05T05:23:48;99903.06;;;10.28;65.11
50672;BME280;46021;55.882;37.654;2023-06-05T05:26:15;99907.03;;;10.43;65.49
50672;BME280;46021;55.882;37.654;2023-06-05T05:28:42;99912.69;;;10.59;66.47
50672;BME280;46021;55.882;37.654;2023-06-05T05:31:10;99904.09;;;10.85;65.68
50672;BME280;46021;55.882;37.654;2023-06-05T05:33:37;99904.28;;;11.08;65.15
50672;BME280;46021;55.882;37.654;2023-06-05T05:36:04;99910.38;;;11.36;64.97
50672;BME280;46021;55.882;37.654;2023-06-05T05:38:33;99912.16;;;11.62;65.09
50672;BME280;46021;55.882;37.654;2023-06-05T05:41:00;99903.47;;;11.88;63.57
50672;BME280;46021;55.882;37.654;2023-06-05T05:43:28;99909.28;;;11.98;63.06
50672;BME280;46021;55.882;37.654;2023-06-05T05:45:55;99909.13;;;12.02;63.09
50672;BME280;46021;55.882;37.654;2023-06-05T05:48:22;99916.41;;;12.19;63.20
50672;BME280;46021;55.882;37.654;2023-06-05T05:50:49;99906.09;;;12.15;62.97
50672;BME280;46021;55.882;37.654;2023-06-05T05:53:16;99902.50;;;12.17;62.47
50672;BME280;46021;55.882;37.654;2023-06-05T05:55:45;99910.91;;;12.27;61.63
50672;BME280;46021;55.882;37.654;2023-06-05T05:58:12;99918.25;;;11.89;63.26
50672;BME280;46021;55.882;37.654;2023-06-05T06:00:41;99906.91;;;11.63;63.21
50672;BME280;46021;55.882;37.654;2023-06-05T06:03:08;99904.06;;;11.43;62.93
50672;BME280;46021;55.882;37.654;2023-06-05T06:05:35;99918.25;;;11.34;63.45
50672;BME280;46021;55.882;37.654;2023-06-05T06:08:03;99910.88;;;11.20;64.41
50672;BME280;46021;55.882;37.654;2023-06-05T06:10:30;99906.59;;;11.18;64.77
50672;BME280;46021;55.882;37.654;2023-06-05T06:12:59;99920.06;;;11.32;65.56
50672;BME280;46021;55.882;37.654;2023-06-05T06:15:27;99911.69;;;11.49;65.47
50672;BME280;46021;55.882;37.654;2023-06-05T06:17:55;99909.72;;;11.57;66.24
50672;BME280;46021;55.882;37.654;2023-06-05T06:20:22;99908.00;;;11.83;65.35
50672;BME280;46021;55.882;37.654;2023-06-05T06:22:49;99905.72;;;12.00;65.06
50672;BME280;46021;55.882;37.654;2023-06-05T06:25:21;99904.22;;;12.18;64.41
50672;BME280;46021;55.882;37.654;2023-06-05T06:27:51;99912.31;;;12.36;64.06
50672;BME280;46021;55.882;37.654;2023-06-05T06:30:20;99906.47;;;12.53;64.06
50672;BME280;46021;55.882;37.654;2023-06-05T06:32:48;99901.03;;;12.59;64.29
50672;BME280;46021;55.882;37.654;2023-06-05T06:35:15;99914.56;;;12.70;63.00
50672;BME280;46021;55.882;37.654;2023-06-05T06:37:42;99902.41;;;12.69;63.00
50672;BME280;46021;55.882;37.654;2023-06-05T06:40:10;99921.59;;;12.68;62.66
50672;BME280;46021;55.882;37.654;2023-06-05T06:42:38;99907.97;;;12.83;62.88
50672;BME280;46021;55.882;37.654;2023-06-05T06:48:01;99898.03;;;13.15;61.83
50672;BME280;46021;55.882;37.654;2023-06-05T06:50:28;99907.91;;;13.31;61.48
50672;BME280;46021;55.882;37.654;2023-06-05T06:52:57;99896.31;;;13.38;61.61
50672;BME280;46021;55.882;37.654;2023-06-05T06:55:28;99881.28;;;13.19;60.83
50672;BME280;46021;55.882;37.654;2023-06-05T06:57:56;99878.75;;;13.40;60.79
50672;BME280;46021;55.882;37.654;2023-06-05T07:00:23;99893.72;;;13.14;60.45
50672;BME280;46021;55.882;37.654;2023-06-05T07:02:58;99895.66;;;13.09;60.57
50672;BME280;46021;55.882;37.654;2023-06-05T07:05:27;99892.25;;;13.07;60.61
50672;BME280;46021;55.882;37.654;2023-06-05T07:07:54;99883.84;;;12.99;60.13
50672;BME280;46021;55.882;37.654;2023-06-05T07:10:27;99888.78;;;12.83;61.44
50672;BME280;46021;55.882;37.654;2023-06-05T07:12:55;99882.97;;;12.76;61.70
50672;BME280;46021;55.882;37.654;2023-06-05T07:15:22;99884.66;;;12.77;61.11
50672;BME280;46021;55.882;37.654;2023-06-05T07:17:50;99879.03;;;12.88;60.58
50672;BME280;46021;55.882;37.654;2023-06-05T07:20:42;99878.66;;;12.97;60.80
50672;BME280;46021;55.882;37.654;2023-06-05T07:23:18;99872.16;;;13.07;60.04
50672;BME280;46021;55.882;37.654;2023-06-05T07:25:45;99878.47;;;13.02;60.43
50672;BME280;46021;55.882;37.654;2023-06-05T07:28:12;99887.38;;;12.98;60.17
50672;BME280;46021;55.882;37.654;2023-06-05T07:30:41;99875.56;;;12.87;59.95
50672;BME280;46021;55.882;37.654;2023-06-05T07:33:17;99884.53;;;12.80;59.61
50672;BME280;46021;55.882;37.654;2023-06-05T07:35:47;99880.78;;;12.87;59.94
50672;BME280;46021;55.882;37.654;2023-06-05T07:38:15;99895.09;;;13.01;59.88
50672;BME280;46021;55.882;37.654;2023-06-05T07:40:42;99893.59;;;13.17;58.61
50672;BME280;46021;55.882;37.654;2023-06-05T07:43:10;99866.31;;;13.23;58.62
50672;BME280;46021;55.882;37.654;2023-06-05T07:45:40;99877.91;;;13.39;58.07
50672;BME280;46021;55.882;37.654;2023-06-05T07:48:07;99870.47;;;13.51;57.89
50672;BME280;46021;55.882;37.654;2023-06-05T07:50:35;99886.41;;;13.67;58.22
50672;BME280;46021;55.882;37.654;2023-06-05T07:53:03;99886.75;;;13.79;57.96
50672;BME280;46021;55.882;37.654;2023-06-05T07:55:31;99865.00;;;13.77;57.21
50672;BME280;46021;55.882;37.654;2023-06-05T07:57:58;99850.41;;;13.92;56.92
50672;BME280;46021;55.882;37.654;2023-06-05T08:00:26;99865.63;;;14.04;56.58
50672;BME280;46021;55.882;37.654;2023-06-05T08:02:54;99869.81;;;13.88;57.06
50672;BME280;46021;55.882;37.654;2023-06-05T08:05:23;99867.97;;;14.11;57.05
50672;BME280;46021;55.882;37.654;2023-06-05T08:08:18;99860.69;;;14.36;55.95
50672;BME280;46021;55.882;37.654;2023-06-05T08:10:45;99867.66;;;14.37;55.79
50672;BME280;46021;55.882;37.654;2023-06-05T08:13:32;99865.13;;;14.55;55.45
50672;BME280;46021;55.882;37.654;2023-06-05T08:15:59;99864.63;;;14.67;54.81
50672;BME280;46021;55.882;37.654;2023-06-05T08:18:28;99860.84;;;14.92;54.92
50672;BME280;46021;55.882;37.654;2023-06-05T08:20:57;99861.09;;;15.24;54.41
50672;BME280;46021;55.882;37.654;2023-06-05T08:23:25;99866.63;;;15.54;53.10
50672;BME280;46021;55.882;37.654;2023-06-05T08:25:53;99851.59;;;15.38;52.41
50672;BME280;46021;55.882;37.654;2023-06-05T08:28:22;99849.41;;;15.48;52.00
50672;BME280;46021;55.882;37.654;2023-06-05T08:30:49;99851.72;;;15.54;52.26
50672;BME280;46021;55.882;37.654;2023-06-05T08:33:18;99850.75;;;15.38;51.43
50672;BME280;46021;55.882;37.654;2023-06-05T08:35:45;99852.31;;;15.42;50.89
50672;BME280;46021;55.882;37.654;2023-06-05T08:38:12;99834.59;;;15.28;50.76
50672;BME280;46021;55.882;37.654;2023-06-05T08:40:41;99836.59;;;15.40;51.34
50672;BME280;46021;55.882;37.654;2023-06-05T08:43:11;99853.06;;;15.44;52.17
50672;BME280;46021;55.882;37.654;2023-06-05T08:45:38;99829.78;;;15.73;51.80
50672;BME280;46021;55.882;37.654;2023-06-05T08:48:05;99834.53;;;16.17;51.61
50672;BME280;46021;55.882;37.654;2023-06-05T08:50:39;99838.16;;;16.48;50.09
50672;BME280;46021;55.882;37.654;2023-06-05T08:53:08;99804.34;;;16.24;49.06
50672;BME280;46021;55.882;37.654;2023-06-05T08:55:35;99841.63;;;16.98;49.21
50672;BME280;46021;55.882;37.654;2023-06-05T08:58:04;99829.28;;;17.90;47.53
50672;BME280;46021;55.882;37.654;2023-06-05T09:05:47;99823.59;;;19.37;44.82
50672;BME280;46021;55.882;37.654;2023-06-05T09:08:15;99818.50;;;20.64;43.72
50672;BME280;46021;55.882;37.654;2023-06-05T09:10:46;99820.53;;;21.46;40.82
50672;BME280;46021;55.882;37.654;2023-06-05T09:13:14;99817.09;;;21.32;40.91
50672;BME280;46021;55.882;37.654;2023-06-05T09:15:50;99822.88;;;20.89;39.13
50672;BME280;46021;55.882;37.654;2023-06-05T09:18:17;99809.44;;;20.17;40.45
50672;BME280;46021;55.882;37.654;2023-06-05T09:20:44;99794.06;;;19.18;41.41
50672;BME280;46021;55.882;37.654;2023-06-05T09:23:23;99808.34;;;17.87;43.86
50672;BME280;46021;55.882;37.654;2023-06-05T09:25:53;99805.25;;;17.04;45.34
50672;BME280;46021;55.882;37.654;2023-06-05T09:28:22;99827.03;;;16.09;47.58
50672;BME280;46021;55.882;37.654;2023-06-05T09:33:30;99815.00;;;17.48;49.20
50672;BME280;46021;55.882;37.654;2023-06-05T09:36:05;99816.78;;;18.93;46.39
50672;BME280;46021;55.882;37.654;2023-06-05T09:38:33;99819.47;;;20.37;44.87
50672;BME280;46021;55.882;37.654;2023-06-05T09:41:04;99802.66;;;21.12;40.75
50672;BME280;46021;55.882;37.654;2023-06-05T09:43:34;99808.66;;;21.38;39.07
50672;BME280;46021;55.882;37.654;2023-06-05T09:46:06;99809.44;;;20.17;39.15
50672;BME280;46021;55.882;37.654;2023-06-05T09:48:34;99814.00;;;19.36;40.71
50672;BME280;46021;55.882;37.654;2023-06-05T09:51:09;99834.72;;;17.87;42.53
50672;BME280;46021;55.882;37.654;2023-06-05T09:53:41;99842.81;;;16.92;45.12
50672;BME280;46021;55.882;37.654;2023-06-05T09:56:11;99845.06;;;15.47;49.50
50672;BME280;46021;55.882;37.654;2023-06-05T09:58:44;99835.50;;;14.53;52.77
50672;BME280;46021;55.882;37.654;2023-06-05T10:01:15;99833.72;;;14.14;52.93
50672;BME280;46021;55.882;37.654;2023-06-05T10:03:47;99839.81;;;13.95;53.48
50672;BME280;46021;55.882;37.654;2023-06-05T10:06:16;99838.09;;;13.94;53.36
50672;BME280;46021;55.882;37.654;2023-06-05T10:08:49;99846.72;;;13.96;53.73
50672;BME280;46021;55.882;37.654;2023-06-05T10:11:17;99843.41;;;14.32;53.15
50672;BME280;46021;55.882;37.654;2023-06-05T10:13:47;99854.19;;;14.85;53.61
50672;BME280;46021;55.882;37.654;2023-06-05T10:16:16;99846.09;;;16.30;54.32
50672;BME280;46021;55.882;37.654;2023-06-05T10:18:45;99841.53;;;18.35;51.64
50672;BME280;46021;55.882;37.654;2023-06-05T10:21:14;99849.03;;;20.05;47.80
50672;BME280;46021;55.882;37.654;2023-06-05T10:23:45;99838.63;;;21.28;45.24
50672;BME280;46021;55.882;37.654;2023-06-05T10:26:23;99843.72;;;21.66;42.87
50672;BME280;46021;55.882;37.654;2023-06-05T10:29:03;99839.22;;;22.02;42.86
50672;BME280;46021;55.882;37.654;2023-06-05T10:31:42;99830.84;;;22.65;42.66
50672;BME280;46021;55.882;37.654;2023-06-05T10:34:18;99837.78;;;23.00;40.73
50672;BME280;46021;55.882;37.654;2023-06-05T10:37:26;99834.50;;;23.93;39.13
50672;BME280;46021;55.882;37.654;2023-06-05T10:39:56;99833.09;;;24.41;39.61
50672;BME280;46021;55.882;37.654;2023-06-05T10:42:24;99829.09;;;24.56;38.39
50672;BME280;46021;55.882;37.654;2023-06-05T10:44:53;99815.94;;;24.74;38.45
50672;BME280;46021;55.882;37.654;2023-06-05T10:47:50;99827.41;;;25.05;36.85
50672;BME280;46021;55.882;37.654;2023-06-05T10:50:22;99822.94;;;25.25;36.03
50672;BME280;46021;55.882;37.654;2023-06-05T10:52:53;99821.69;;;24.60;35.96
50672;BME280;46021;55.882;37.654;2023-06-05T10:55:22;99812.41;;;23.07;37.47
50672;BME280;46021;55.882;37.654;2023-06-05T10:58:09;99816.44;;;21.53;37.46
50672;BME280;46021;55.882;37.654;2023-06-05T11:01:17;99823.00;;;20.25;40.27
50672;BME280;46021;55.882;37.654;2023-06-05T11:03:56;99813.44;;;20.35;41.76
50672;BME280;46021;55.882;37.654;2023-06-05T11:06:23;99817.84;;;20.73;40.87
50672;BME280;46021;55.882;37.654;2023-06-05T11:09:06;99812.59;;;20.35;40.93
50672;BME280;46021;55.882;37.654;2023-06-05T11:11:54;99803.97;;;19.41;41.26
50672;BME280;46021;55.882;37.654;2023-06-05T11:14:22;99809.19;;;18.60;41.96
50672;BME280;46021;55.882;37.654;2023-06-05T11:16:50;99784.19;;;17.65;43.70
50672;BME280;46021;55.882;37.654;2023-06-05T11:19:36;99802.19;;;17.42;43.89
50672;BME280;46021;55.882;37.654;2023-06-05T11:22:05;99810.53;;;17.34;44.69
50672;BME280;46021;55.882;37.654;2023-06-05T11:24:35;99804.72;;;17.74;44.42
50672;BME280;46021;55.882;37.654;2023-06-05T11:27:03;99794.06;;;18.06;43.34
50672;BME280;46021;55.882;37.654;2023-06-05T11:29:31;99787.88;;;17.77;43.55
50672;BME280;46021;55.882;37.654;2023-06-05T11:32:00;99779.69;;;17.81;43.07
50672;BME280;46021;55.882;37.654;2023-06-05T11:34:37;99797.72;;;17.89;43.20
50672;BME280;46021;55.882;37.654;2023-06-05T11:37:17;99787.47;;;18.13;42.57
50672;BME280;46021;55.882;37.654;2023-06-05T11:39:45;99798.94;;;18.41;41.74
50672;BME280;46021;55.882;37.654;2023-06-05T11:42:12;99791.00;;;18.55;40.96
50672;BME280;46021;55.882;37.654;2023-06-05T11:44:39;99787.63;;;18.95;41.47
50672;BME280;46021;55.882;37.654;2023-06-05T11:47:21;99793.94;;;18.92;39.80
50672;BME280;46021;55.882;37.654;2023-06-05T11:49:49;99791.41;;;18.49;40.20
50672;BME280;46021;55.882;37.654;2023-06-05T11:52:21;99790.69;;;17.73;41.75
50672;BME280;46021;55.882;37.654;2023-06-05T11:54:48;99796.94;;;16.96;42.48
50672;BME280;46021;55.882;37.654;2023-06-05T11:57:39;99805.59;;;16.50;43.81
50672;BME280;46021;55.882;37.654;2023-06-05T12:00:07;99826.22;;;16.09;43.96
50672;BME280;46021;55.882;37.654;2023-06-05T12:02:37;99833.31;;;15.37;46.44
50672;BME280;46021;55.882;37.654;2023-06-05T12:05:05;99855.56;;;14.54;48.26
50672;BME280;46021;55.882;37.654;2023-06-05T12:07:33;99847.38;;;14.22;48.66
50672;BME280;46021;55.882;37.654;2023-06-05T12:10:03;99850.00;;;14.01;49.01
50672;BME280;46021;55.882;37.654;2023-06-05T12:12:31;99845.69;;;13.80;49.93
50672;BME280;46021;55.882;37.654;2023-06-05T12:15:13;99843.56;;;13.47;52.05
50672;BME280;46021;55.882;37.654;2023-06-05T12:17:48;99863.16;;;13.15;54.86
50672;BME280;46021;55.882;37.654;2023-06-05T12:20:16;99853.03;;;13.05;54.74
50672;BME280;46021;55.882;37.654;2023-06-05T12:22:43;99843.38;;;13.07;54.48
50672;BME280;46021;55.882;37.654;2023-06-05T12:25:17;99843.41;;;13.06;55.72
50672;BME280;46021;55.882;37.654;2023-06-05T12:27:44;99834.56;;;13.10;54.32
50672;BME280;46021;55.882;37.654;2023-06-05T12:30:12;99841.75;;;13.27;54.40
50672;BME280;46021;55.882;37.654;2023-06-05T12:32:42;99829.56;;;13.48;54.79
50672;BME280;46021;55.882;37.654;2023-06-05T12:35:18;99816.41;;;13.91;55.70
50672;BME280;46021;55.882;37.654;2023-06-05T12:37:45;99834.47;;;14.36;54.84
50672;BME280;46021;55.882;37.654;2023-06-05T12:40:13;99831.22;;;14.71;54.76
50672;BME280;46021;55.882;37.654;2023-06-05T12:42:43;99823.13;;;15.12;53.40
50672;BME280;46021;55.882;37.654;2023-06-05T12:45:11;99819.94;;;15.42;52.03
50672;BME280;46021;55.882;37.654;2023-06-05T12:47:38;99811.53;;;15.52;51.49
50672;BME280;46021;55.882;37.654;2023-06-05T12:50:08;99805.97;;;15.58;50.95
50672;BME280;46021;55.882;37.654;2023-06-05T12:52:38;99805.81;;;15.62;52.18
50672;BME280;46021;55.882;37.654;2023-06-05T12:55:06;99810.19;;;15.61;51.87
50672;BME280;46021;55.882;37.654;2023-06-05T12:57:34;99819.28;;;15.90;51.13
50672;BME280;46021;55.882;37.654;2023-06-05T13:00:02;99812.59;;;15.66;51.14
50672;BME280;46021;55.882;37.654;2023-06-05T13:02:36;99810.91;;;15.65;50.69
50672;BME280;46021;55.882;37.654;2023-06-05T13:05:03;99809.63;;;15.73;50.20
50672;BME280;46021;55.882;37.654;2023-06-05T13:07:33;99811.75;;;15.65;50.73
50672;BME280;46021;55.882;37.654;2023-06-05T13:10:04;99801.91;;;15.69;50.78
50672;BME280;46021;55.882;37.654;2023-06-05T13:12:31;99798.53;;;15.67;50.07
50672;BME280;46021;55.882;37.654;2023-06-05T13:14:59;99804.56;;;15.69;49.31
50672;BME280;46021;55.882;37.654;2023-06-05T13:17:30;99798.72;;;15.81;49.90